createdAt,value
2023-02-22T00:01:37.881Z,16.67
2023-02-22T00:04:17.634Z,16.25
2023-02-22T00:06:45.327Z,16.00
2023-02-22T00:09:11.758Z,15.68
2023-02-22T00:11:38.600Z,17.40
2023-02-22T00:14:05.207Z,16.10
2023-02-22T00:16:31.773Z,16.70
2023-02-22T00:18:58.383Z,17.25
2023-02-22T00:21:24.810Z,17.00
2023-02-22T00:23:54.547Z,17.23
2023-02-22T00:26:23.274Z,17.63
2023-02-22T00:28:52.391Z,16.10
2023-02-22T00:31:19.791Z,17.25
2023-02-22T00:33:46.663Z,17.38
2023-02-22T00:36:13.680Z,16.05
2023-02-22T00:38:40.961Z,17.17
2023-02-22T00:41:07.811Z,16.33
2023-02-22T00:43:34.848Z,16.85
2023-02-22T00:46:01.356Z,15.48
2023-02-22T00:48:28.373Z,15.73
2023-02-22T00:50:55.278Z,15.95
2023-02-22T00:53:23.651Z,16.33
2023-02-22T00:55:50.496Z,16.65
2023-02-22T00:58:16.942Z,16.10
2023-02-22T01:00:43.612Z,15.35
2023-02-22T01:03:12.976Z,15.85
2023-02-22T01:05:39.378Z,15.10
2023-02-22T01:08:08.712Z,15.93
2023-02-22T01:10:36.295Z,16.75
2023-02-22T01:13:08.428Z,17.52
2023-02-22T01:15:36.511Z,16.20
2023-02-22T01:18:05.056Z,15.95
2023-02-22T01:20:32.148Z,15.50
2023-02-22T01:23:00.486Z,15.60
2023-02-22T01:25:29.195Z,14.80
2023-02-22T01:27:56.353Z,15.52
2023-02-22T01:30:28.344Z,14.90
2023-02-22T01:32:55.696Z,15.32
2023-02-22T01:35:27.785Z,14.07
2023-02-22T01:37:54.481Z,14.13
2023-02-22T01:40:24.219Z,13.95
2023-02-22T01:42:58.821Z,14.73
2023-02-22T01:45:32.568Z,14.48
2023-02-22T01:48:11.052Z,15.38
2023-02-22T01:51:10.619Z,14.43
2023-02-22T01:53:41.818Z,14.30
2023-02-22T01:56:08.630Z,13.75
2023-02-22T01:58:36.441Z,13.93
2023-02-22T02:01:03.169Z,13.23
2023-02-22T02:03:31.073Z,13.80
2023-02-22T02:05:59.916Z,14.10
2023-02-22T02:08:42.372Z,13.95
2023-02-22T02:13:36.185Z,12.15
2023-02-22T02:16:02.648Z,13.40
2023-02-22T02:18:29.416Z,13.52
2023-02-22T02:21:27.025Z,13.15
2023-02-22T02:24:12.336Z,13.25
2023-02-22T02:27:09.046Z,13.50
2023-02-22T02:30:01.935Z,12.90
2023-02-22T02:32:47.129Z,13.38
2023-02-22T02:35:21.556Z,12.02
2023-02-22T02:38:12.782Z,13.48
2023-02-22T02:40:43.703Z,13.70
2023-02-22T02:43:25.706Z,13.20
2023-02-22T02:45:58.784Z,13.35
2023-02-22T02:48:28.083Z,12.60
2023-02-22T02:50:57.286Z,13.30
2023-02-22T02:53:27.708Z,13.60
2023-02-22T02:55:54.147Z,13.68
2023-02-22T02:58:22.993Z,14.68
2023-02-22T03:00:52.735Z,14.43
2023-02-22T03:03:37.412Z,13.10
2023-02-22T03:06:32.898Z,12.65
2023-02-22T03:09:06.488Z,13.77
2023-02-22T03:11:41.304Z,13.43
2023-02-22T03:14:24.849Z,13.85
2023-02-22T03:17:07.386Z,14.15
2023-02-22T03:22:26.276Z,13.70
2023-02-22T03:24:59.125Z,13.88
2023-02-22T03:27:36.747Z,14.07
2023-02-22T03:30:08.062Z,13.95
2023-02-22T03:32:39.349Z,14.75
2023-02-22T03:35:09.000Z,12.93
2023-02-22T03:37:39.946Z,14.23
2023-02-22T03:40:16.846Z,14.10
2023-02-22T03:42:47.308Z,13.73
2023-02-22T03:45:15.927Z,13.73
2023-02-22T03:47:46.033Z,13.75
2023-02-22T03:52:44.351Z,13.18
2023-02-22T03:55:12.062Z,15.02
2023-02-22T03:57:41.735Z,15.02
2023-02-22T04:00:14.474Z,15.32
2023-02-22T04:02:41.411Z,14.90
2023-02-22T04:05:08.132Z,15.25
2023-02-22T04:07:34.577Z,13.98
2023-02-22T04:10:02.822Z,14.57
2023-02-22T04:12:29.333Z,14.77
2023-02-22T04:14:55.763Z,14.55
2023-02-22T04:17:22.146Z,15.13
2023-02-22T04:19:48.557Z,14.65
2023-02-22T04:22:14.934Z,15.68
2023-02-22T04:24:41.387Z,16.27
2023-02-22T04:27:08.860Z,15.98
2023-02-22T04:29:35.273Z,14.15
2023-02-22T04:32:01.661Z,16.05
2023-02-22T04:34:28.066Z,16.40
2023-02-22T04:36:54.496Z,14.68
2023-02-22T04:39:20.952Z,15.27
2023-02-22T04:41:47.564Z,15.98
2023-02-22T04:44:14.214Z,15.65
2023-02-22T04:46:40.689Z,16.38
2023-02-22T04:49:07.281Z,15.93
2023-02-22T04:51:33.857Z,15.88
2023-02-22T04:54:00.433Z,17.52
2023-02-22T04:56:27.138Z,15.93
2023-02-22T04:58:53.529Z,16.20
2023-02-22T05:01:20.000Z,15.48
2023-02-22T05:03:46.465Z,17.95
2023-02-22T05:06:12.982Z,17.45
2023-02-22T05:08:39.448Z,16.40
2023-02-22T05:11:06.380Z,17.00
2023-02-22T05:13:32.887Z,16.85
2023-02-22T05:15:59.386Z,15.77
2023-02-22T05:18:25.882Z,18.55
2023-02-22T05:20:52.494Z,17.33
2023-02-22T05:23:18.887Z,17.23
2023-02-22T05:25:45.932Z,16.73
2023-02-22T05:28:14.563Z,16.35
2023-02-22T05:30:41.408Z,17.75
2023-02-22T05:33:09.001Z,17.55
2023-02-22T05:35:36.994Z,17.80
2023-02-22T05:38:04.210Z,17.48
2023-02-22T05:40:30.979Z,18.55
2023-02-22T05:42:58.091Z,16.50
2023-02-22T05:45:26.298Z,17.42
2023-02-22T05:47:53.931Z,17.50
2023-02-22T05:50:20.935Z,17.20
2023-02-22T05:52:48.658Z,17.65
2023-02-22T05:55:17.723Z,17.75
2023-02-22T05:57:44.529Z,15.80
2023-02-22T06:00:16.440Z,17.13
2023-02-22T06:02:42.817Z,17.48
2023-02-22T06:05:09.273Z,16.48
2023-02-22T06:07:35.721Z,16.38
2023-02-22T06:10:02.157Z,17.80
2023-02-22T06:12:28.549Z,17.02
2023-02-22T06:14:55.021Z,18.25
2023-02-22T06:17:21.414Z,19.48
2023-02-22T06:19:47.828Z,17.52
2023-02-22T06:22:18.837Z,18.80
2023-02-22T06:24:45.256Z,17.83
2023-02-22T06:27:11.702Z,17.15
2023-02-22T06:29:38.467Z,18.83
2023-02-22T06:32:05.252Z,17.48
2023-02-22T06:34:31.715Z,17.40
2023-02-22T06:37:00.008Z,18.73
2023-02-22T06:39:26.600Z,19.10
2023-02-22T06:41:55.174Z,19.65
2023-02-22T06:44:21.873Z,19.27
2023-02-22T06:46:51.058Z,18.20
2023-02-22T06:49:18.765Z,19.48
2023-02-22T06:51:45.577Z,18.92
2023-02-22T06:54:12.162Z,20.05
2023-02-22T06:56:38.575Z,21.27
2023-02-22T06:59:04.978Z,18.65
2023-02-22T07:01:31.449Z,19.10
2023-02-22T07:03:57.973Z,19.02
2023-02-22T07:06:24.450Z,20.33
2023-02-22T07:08:50.957Z,18.27
2023-02-22T07:11:17.997Z,20.48
2023-02-22T07:13:44.624Z,19.80
2023-02-22T07:16:11.109Z,18.88
2023-02-22T07:18:37.559Z,19.52
2023-02-22T07:21:04.274Z,19.92
2023-02-22T07:23:30.689Z,20.70
2023-02-22T07:26:01.037Z,19.85
2023-02-22T07:28:27.447Z,19.33
2023-02-22T07:30:54.066Z,19.17
2023-02-22T07:33:20.552Z,19.55
2023-02-22T07:35:49.300Z,19.60
2023-02-22T07:38:17.337Z,19.83
2023-02-22T07:40:44.237Z,19.48
2023-02-22T07:43:17.264Z,19.33
2023-02-22T07:45:44.086Z,18.60
2023-02-22T07:48:12.421Z,19.27
2023-02-22T07:50:39.408Z,18.20
2023-02-22T07:53:10.979Z,17.42
2023-02-22T07:55:37.440Z,17.55
2023-02-22T07:58:06.581Z,19.20
2023-02-22T08:00:39.239Z,17.88
2023-02-22T08:03:08.430Z,18.02
2023-02-22T08:05:36.778Z,18.05
2023-02-22T08:08:04.319Z,18.25
2023-02-22T08:10:31.002Z,18.23
2023-02-22T08:12:57.661Z,19.05
2023-02-22T08:15:29.578Z,20.17
2023-02-22T08:17:56.982Z,19.65
2023-02-22T08:20:24.157Z,20.23
2023-02-22T08:22:51.025Z,19.90
2023-02-22T08:25:18.892Z,17.48
2023-02-22T08:27:45.365Z,18.98
2023-02-22T08:30:17.948Z,18.10
2023-02-22T08:32:46.172Z,17.60
2023-02-22T08:35:14.303Z,17.70
2023-02-22T08:37:45.120Z,18.38
2023-02-22T08:40:14.716Z,17.67
2023-02-22T08:42:41.399Z,17.75
2023-02-22T08:45:08.300Z,17.25
2023-02-22T08:47:34.696Z,17.80
2023-02-22T08:50:01.282Z,18.67
2023-02-22T08:52:27.658Z,16.70
2023-02-22T08:54:54.077Z,16.42
2023-02-22T08:57:21.720Z,16.83
2023-02-22T08:59:48.643Z,15.82
2023-02-22T09:02:16.863Z,16.13
2023-02-22T09:04:43.728Z,16.30
2023-02-22T09:07:10.880Z,16.75
2023-02-22T09:09:37.336Z,15.93
2023-02-22T09:12:04.148Z,16.73
2023-02-22T09:14:30.693Z,15.80
2023-02-22T09:16:57.454Z,16.63
2023-02-22T09:19:25.029Z,14.82
2023-02-22T09:22:00.622Z,15.75
2023-02-22T09:24:27.589Z,14.98
2023-02-22T09:26:54.136Z,15.82
2023-02-22T09:29:25.654Z,15.73
2023-02-22T09:31:54.715Z,15.23
2023-02-22T09:34:29.433Z,15.68
2023-02-22T09:36:57.491Z,15.35
2023-02-22T09:39:24.459Z,15.60
2023-02-22T09:41:59.106Z,15.73
2023-02-22T09:44:36.203Z,16.00
2023-02-22T09:47:04.852Z,15.77
2023-02-22T09:49:38.102Z,15.13
2023-02-22T09:52:18.817Z,14.70
2023-02-22T09:54:53.738Z,14.50
2023-02-22T09:57:25.985Z,13.57
2023-02-22T10:00:01.157Z,15.98
2023-02-22T10:02:32.334Z,15.82
2023-02-22T10:05:14.115Z,15.43
2023-02-22T10:07:46.612Z,15.60
2023-02-22T10:10:22.226Z,16.33
2023-02-22T10:13:06.122Z,16.08
2023-02-22T10:15:47.843Z,16.40
2023-02-22T10:18:32.784Z,16.52
2023-02-22T10:21:31.539Z,16.38
2023-02-22T10:24:13.061Z,15.20
2023-02-22T10:26:44.422Z,15.57
2023-02-22T10:29:22.033Z,16.55
2023-02-22T10:32:12.246Z,15.98
2023-02-22T10:34:44.197Z,14.77
2023-02-22T10:37:34.046Z,15.73
2023-02-22T10:40:22.831Z,15.38
2023-02-22T10:42:49.997Z,15.18
2023-02-22T10:45:29.910Z,15.27
2023-02-22T10:47:59.082Z,15.82
2023-02-22T10:50:30.892Z,17.15
2023-02-22T10:52:57.594Z,14.52
2023-02-22T10:55:24.052Z,15.18
2023-02-22T10:57:51.976Z,16.48
2023-02-22T11:00:29.696Z,15.40
2023-02-22T11:02:57.620Z,15.80
2023-02-22T11:05:32.973Z,15.55
2023-02-22T11:08:14.978Z,15.05
2023-02-22T11:10:43.328Z,15.85
2023-02-22T11:13:28.576Z,15.85
2023-02-22T11:16:26.234Z,15.40
2023-02-22T11:19:03.853Z,14.63
2023-02-22T11:21:32.259Z,15.57
2023-02-22T11:24:04.299Z,15.43
2023-02-22T11:26:40.948Z,15.88
2023-02-22T11:29:25.687Z,15.20
2023-02-22T11:31:52.553Z,13.63
2023-02-22T11:34:35.113Z,14.90
2023-02-22T11:37:23.345Z,14.15
2023-02-22T11:40:05.229Z,14.10
2023-02-22T11:42:31.616Z,14.77
2023-02-22T11:45:13.355Z,13.85
2023-02-22T11:48:00.954Z,13.25
2023-02-22T11:50:46.512Z,12.82
2023-02-22T11:53:32.281Z,13.95
2023-02-22T11:56:10.928Z,14.00
2023-02-22T11:58:50.438Z,13.27
2023-02-22T12:01:23.635Z,13.50
2023-02-22T12:04:03.177Z,13.70
2023-02-22T12:06:40.175Z,14.25
2023-02-22T12:09:13.905Z,13.82
2023-02-22T12:12:11.894Z,14.48
2023-02-22T12:14:55.431Z,14.35
2023-02-22T12:17:35.007Z,14.48
2023-02-22T12:20:13.271Z,13.90
2023-02-22T12:22:46.803Z,15.25
2023-02-22T12:25:20.614Z,14.00
2023-02-22T12:27:54.388Z,13.40
2023-02-22T12:30:34.146Z,14.13
2023-02-22T12:33:06.197Z,15.77
2023-02-22T12:35:34.821Z,15.35
2023-02-22T12:38:14.819Z,14.85
2023-02-22T12:40:56.960Z,16.10
2023-02-22T12:43:36.626Z,14.10
2023-02-22T12:46:18.046Z,14.63
2023-02-22T12:48:53.775Z,14.88
2023-02-22T12:51:26.123Z,14.18
2023-02-22T12:54:02.248Z,13.90
2023-02-22T12:59:03.683Z,15.05
2023-02-22T13:01:37.839Z,14.48
2023-02-22T13:04:19.350Z,14.70
2023-02-22T13:07:05.600Z,15.32
2023-02-22T13:09:31.896Z,14.68
2023-02-22T13:12:18.651Z,15.73
2023-02-22T13:15:09.234Z,14.02
2023-02-22T13:17:41.993Z,14.48
2023-02-22T13:20:18.456Z,15.50
2023-02-22T13:22:44.834Z,14.45
2023-02-22T13:25:22.259Z,16.05
2023-02-22T13:28:13.170Z,15.10
2023-02-22T13:31:02.844Z,15.38
2023-02-22T13:33:54.293Z,17.20
2023-02-22T13:36:37.560Z,13.77
2023-02-22T13:39:33.202Z,15.93
2023-02-22T13:42:09.954Z,15.23
2023-02-22T13:44:44.932Z,15.05
2023-02-22T13:47:26.498Z,14.77
2023-02-22T13:50:18.001Z,14.48
2023-02-22T13:52:45.009Z,14.75
2023-02-22T13:55:34.403Z,15.40
2023-02-22T13:58:06.746Z,14.32
2023-02-22T14:00:44.529Z,15.05
2023-02-22T14:03:13.992Z,14.82
2023-02-22T14:05:44.698Z,15.00
2023-02-22T14:08:13.886Z,15.52
2023-02-22T14:10:43.308Z,15.45
2023-02-22T14:13:10.611Z,15.40
2023-02-22T14:15:37.193Z,15.07
2023-02-22T14:18:07.267Z,14.75
2023-02-22T14:20:38.162Z,13.88
2023-02-22T14:23:23.294Z,15.00
2023-02-22T14:25:50.534Z,15.02
2023-02-22T14:28:52.455Z,14.90
2023-02-22T14:31:43.592Z,14.68
2023-02-22T14:34:12.144Z,14.07
2023-02-22T14:36:54.770Z,16.48
2023-02-22T14:39:32.254Z,13.95
2023-02-22T14:42:10.611Z,15.52
2023-02-22T14:44:41.888Z,16.20
2023-02-22T14:47:22.688Z,15.60
2023-02-22T14:49:51.093Z,15.27
2023-02-22T14:52:22.042Z,16.30
2023-02-22T14:55:14.043Z,14.88
2023-02-22T14:57:43.638Z,15.85
2023-02-22T15:00:30.717Z,15.73
2023-02-22T15:02:59.523Z,14.30
2023-02-22T15:05:30.403Z,17.02
2023-02-22T15:08:00.115Z,15.45
2023-02-22T15:10:30.685Z,14.45
2023-02-22T15:13:09.520Z,15.55
2023-02-22T15:15:49.332Z,15.60
2023-02-22T15:18:23.568Z,14.32
2023-02-22T15:20:56.115Z,13.50
2023-02-22T15:23:26.805Z,14.93
2023-02-22T15:25:54.082Z,15.30
2023-02-22T15:28:23.383Z,15.13
2023-02-22T15:30:50.016Z,14.98
2023-02-22T15:33:24.274Z,14.50
2023-02-22T15:35:57.778Z,14.88
2023-02-22T15:38:29.652Z,14.80
2023-02-22T15:41:04.201Z,14.63
2023-02-22T15:43:32.221Z,14.63
2023-02-22T15:45:59.815Z,15.27
2023-02-22T15:48:27.108Z,15.45
2023-02-22T15:51:06.550Z,17.52
2023-02-22T15:53:43.267Z,15.00
2023-02-22T15:56:14.200Z,15.32
2023-02-22T15:58:41.483Z,15.82
2023-02-22T16:01:16.578Z,15.48
2023-02-22T16:03:47.054Z,16.40
2023-02-22T16:06:33.742Z,15.20
2023-02-22T16:09:02.499Z,16.58
2023-02-22T16:11:39.889Z,15.13
2023-02-22T16:14:23.596Z,16.92
2023-02-22T16:16:50.439Z,15.95
2023-02-22T16:19:31.378Z,16.52
2023-02-22T16:22:04.866Z,14.68
2023-02-22T16:24:36.199Z,16.00
2023-02-22T16:27:15.870Z,16.75
2023-02-22T16:29:43.452Z,15.10
2023-02-22T16:32:09.983Z,16.58
2023-02-22T16:34:36.627Z,16.85
2023-02-22T16:37:03.224Z,19.13
2023-02-22T16:39:31.540Z,17.42
2023-02-22T16:41:59.465Z,18.38
2023-02-22T16:44:26.686Z,18.15
2023-02-22T16:46:54.000Z,19.92
2023-02-22T16:49:20.758Z,18.65
2023-02-22T16:51:54.650Z,19.30
2023-02-22T16:54:26.792Z,18.50
2023-02-22T16:56:54.962Z,20.10
2023-02-22T16:59:21.569Z,19.33
2023-02-22T17:01:48.071Z,19.17
2023-02-22T17:04:18.022Z,21.45
2023-02-22T17:09:11.096Z,19.50
2023-02-22T17:11:38.215Z,19.10
2023-02-22T17:14:05.221Z,21.45
2023-02-22T17:16:31.626Z,22.92
2023-02-22T17:18:59.123Z,22.33
2023-02-22T17:21:25.523Z,21.48
2023-02-22T17:23:51.921Z,23.85
2023-02-22T17:26:18.562Z,24.98
2023-02-22T17:28:45.261Z,27.00
2023-02-22T17:31:19.752Z,26.52
2023-02-22T17:33:46.318Z,30.15
2023-02-22T17:36:13.297Z,27.92
2023-02-22T17:38:41.656Z,28.92
2023-02-22T17:41:08.259Z,29.05
2023-02-22T17:43:35.144Z,29.92
2023-02-22T17:46:07.767Z,30.13
2023-02-22T17:48:34.892Z,31.00
2023-02-22T17:51:08.878Z,30.90
2023-02-22T17:53:35.495Z,29.35
2023-02-22T17:56:07.137Z,31.23
2023-02-22T17:58:34.274Z,31.48
2023-02-22T18:01:01.169Z,33.30
2023-02-22T18:03:29.061Z,32.20
2023-02-22T18:05:58.127Z,29.30
2023-02-22T18:08:26.724Z,30.80
2023-02-22T18:10:56.445Z,31.33
2023-02-22T18:13:25.602Z,31.35
2023-02-22T18:15:52.371Z,31.08
2023-02-22T18:18:19.793Z,30.35
2023-02-22T18:20:51.302Z,30.65
2023-02-22T18:23:20.919Z,31.63
2023-02-22T18:26:08.966Z,30.25
2023-02-22T18:31:15.033Z,33.85
2023-02-22T18:33:46.627Z,32.35
2023-02-22T18:36:21.418Z,31.00
2023-02-22T18:38:48.653Z,32.25
2023-02-22T18:41:17.546Z,33.05
2023-02-22T18:43:46.332Z,33.10
2023-02-22T18:46:14.357Z,32.90
2023-02-22T18:48:48.878Z,33.35
2023-02-22T18:51:17.276Z,35.78
2023-02-22T18:53:47.106Z,37.33
2023-02-22T18:58:45.166Z,35.80
2023-02-22T19:01:17.341Z,35.80
2023-02-22T19:03:46.988Z,36.42
2023-02-22T19:06:14.349Z,36.13
2023-02-22T19:08:42.961Z,38.47
2023-02-22T19:11:17.621Z,44.47
2023-02-22T19:13:47.840Z,37.00
2023-02-22T19:16:16.722Z,37.90
2023-02-22T19:18:44.121Z,37.72
2023-02-22T19:21:12.556Z,38.78
2023-02-22T19:23:45.838Z,37.75
2023-02-22T19:26:13.731Z,36.38
2023-02-22T19:28:40.188Z,38.40
2023-02-22T19:31:16.209Z,35.45
2023-02-22T19:36:10.088Z,37.55
2023-02-22T19:38:36.708Z,35.90
2023-02-22T19:41:10.089Z,35.42
2023-02-22T19:43:37.667Z,38.05
2023-02-22T19:46:06.289Z,37.30
2023-02-22T19:48:32.933Z,36.42
2023-02-22T19:51:07.717Z,38.63
2023-02-22T19:53:35.414Z,35.97
2023-02-22T19:56:06.866Z,40.10
2023-02-22T19:58:36.611Z,34.47
2023-02-22T20:01:11.710Z,35.95
2023-02-22T20:03:38.724Z,34.92
2023-02-22T20:06:09.034Z,35.65
2023-02-22T20:08:37.159Z,28.42
2023-02-22T20:11:04.982Z,32.97
2023-02-22T20:13:32.894Z,33.85
2023-02-22T20:15:59.703Z,32.40
2023-02-22T20:18:26.077Z,34.17
2023-02-22T20:20:52.487Z,36.30
2023-02-22T20:23:19.016Z,33.80
2023-02-22T20:25:55.224Z,33.17
2023-02-22T20:30:51.350Z,30.65
2023-02-22T20:33:18.930Z,31.15
2023-02-22T20:35:46.628Z,31.33
2023-02-22T20:38:19.192Z,32.17
2023-02-22T20:40:46.800Z,32.00
2023-02-22T20:43:13.383Z,35.10
2023-02-22T20:45:39.807Z,33.92
2023-02-22T20:48:06.396Z,35.60
2023-02-22T20:50:35.005Z,34.25
2023-02-22T20:53:01.435Z,33.30
2023-02-22T20:55:27.836Z,32.35
2023-02-22T20:57:54.356Z,32.22
2023-02-22T21:00:20.837Z,34.63
2023-02-22T21:02:47.319Z,33.70
2023-02-22T21:05:13.857Z,31.58
2023-02-22T21:07:40.394Z,32.08
2023-02-22T21:10:07.024Z,33.55
2023-02-22T21:12:34.987Z,31.75
2023-02-22T21:15:01.488Z,30.75
2023-02-22T21:17:30.786Z,30.55
2023-02-22T21:19:58.389Z,33.13
2023-02-22T21:22:25.259Z,33.78
2023-02-22T21:24:52.307Z,32.28
2023-02-22T21:27:18.850Z,33.22
2023-02-22T21:29:45.471Z,30.90
2023-02-22T21:32:13.607Z,32.50
2023-02-22T21:34:40.299Z,31.98
2023-02-22T21:37:08.213Z,31.88
2023-02-22T21:39:35.428Z,32.03
2023-02-22T21:42:02.418Z,31.75
2023-02-22T21:44:29.439Z,33.50
2023-02-22T21:46:55.863Z,32.50
2023-02-22T21:49:23.126Z,32.33
2023-02-22T21:51:51.599Z,31.45
2023-02-22T21:54:18.139Z,31.77
2023-02-22T21:56:44.658Z,31.75
2023-02-22T21:59:26.238Z,34.72
2023-02-22T22:01:55.754Z,32.90
2023-02-22T22:04:28.374Z,31.65
2023-02-22T22:06:56.789Z,31.40
2023-02-22T22:09:23.695Z,32.70
2023-02-22T22:11:58.188Z,30.88
2023-02-22T22:14:26.055Z,29.50
2023-02-22T22:17:00.091Z,33.03
2023-02-22T22:19:31.155Z,32.30
2023-02-22T22:21:58.121Z,32.63
2023-02-22T22:24:25.246Z,30.73
2023-02-22T22:26:54.935Z,30.40
2023-02-22T22:29:28.271Z,31.35
2023-02-22T22:31:54.838Z,30.45
2023-02-22T22:34:24.246Z,28.27
2023-02-22T22:36:50.790Z,28.58
2023-02-22T22:39:20.824Z,30.60
2023-02-22T22:44:16.114Z,26.70
2023-02-22T22:46:43.252Z,31.08
2023-02-22T22:49:11.928Z,29.92
2023-02-22T22:51:40.918Z,30.92
2023-02-22T22:54:09.424Z,28.17
2023-02-22T22:56:37.809Z,28.90
2023-02-22T22:59:10.437Z,27.58
2023-02-22T23:01:40.385Z,28.23
2023-02-22T23:04:10.593Z,28.92
2023-02-22T23:06:42.902Z,28.92
2023-02-22T23:09:14.672Z,28.10
2023-02-22T23:11:44.395Z,28.00
2023-02-22T23:14:21.748Z,26.92
2023-02-22T23:16:49.927Z,28.38
2023-02-22T23:19:16.635Z,30.15
2023-02-22T23:21:44.011Z,28.27
2023-02-22T23:24:15.155Z,30.83
2023-02-22T23:26:42.271Z,29.45
2023-02-22T23:29:09.750Z,29.42
2023-02-22T23:31:39.546Z,31.23
2023-02-22T23:34:10.975Z,29.27
2023-02-22T23:36:44.261Z,29.95
2023-02-22T23:39:15.690Z,30.08
2023-02-22T23:41:42.438Z,30.02
2023-02-22T23:44:17.351Z,30.35
2023-02-22T23:46:47.890Z,30.45
2023-02-22T23:49:20.072Z,30.55
2023-02-22T23:51:46.823Z,31.33
2023-02-22T23:54:21.269Z,29.80
2023-02-22T23:56:56.332Z,29.77
2023-02-22T23:59:24.780Z,32.88
